Back to Top

Language: 

My Weather Underground Personal Weather Station Historical Data with Graphs...

Delerius Weather Station Historical Data
Daily Summary for October 6, 2017 Units:  English    Metric   Both
« Previous Day
Next Day »
Daily Weekly Monthly Yearly Custom
  High: Low: Average:
Temperature: 58.8 °F 43.2 °F 51 °F
Dew Point: 46.4 °F 40.4 °F 44 °F
Humidity: 91 % 58 % 78 %
Wind Speed: 10.0 mph 0.0 mph 5 mph
Wind Gust: 18.0 mph - -
Wind:- - WNW
Pressure: 30.32 in 30.12 in -
Precipitation: 0.00 in    
Historical Graphs
 
 
Tabular Data for October 6, 2017
Time Temperature Dew Point Pressure Wind Wind Speed Wind Gust Humidity Rainfall Rate (Hourly) solar Conditions
00:00 48.9 °F 44.9 °F 30.17 in WNW 8.0 mph 13.0 mph 86 % 0.00 in 0 W/m2
00:05 48.7 °F 44.7 °F 30.17 in WNW 8.0 mph 14.0 mph 86 % 0.00 in 0 W/m2
00:10 48.7 °F 44.7 °F 30.17 in WNW 9.0 mph 15.0 mph 86 % 0.00 in 0 W/m2
00:15 48.7 °F 44.4 °F 30.17 in WNW 9.0 mph 15.0 mph 85 % 0.00 in 0 W/m2
00:20 48.7 °F 44.4 °F 30.17 in WNW 8.0 mph 14.0 mph 85 % 0.00 in 0 W/m2
00:25 48.7 °F 44.4 °F 30.17 in WNW 9.0 mph 14.0 mph 85 % 0.00 in 0 W/m2
00:30 48.6 °F 44.3 °F 30.17 in WNW 9.0 mph 15.0 mph 85 % 0.00 in 0 W/m2
00:35 48.6 °F 44.3 °F 30.18 in WNW 9.0 mph 15.0 mph 85 % 0.00 in 0 W/m2
00:37 48.6 °F 44.3 °F 30.18 in WNW 9.0 mph 14.0 mph 85 % 0.00 in 0 W/m2
00:42 48.4 °F 44.1 °F 30.18 in WNW 8.0 mph 13.0 mph 85 % 0.00 in 0 W/m2
00:48 48.4 °F 44.1 °F 30.18 in WNW 8.0 mph 12.0 mph 85 % 0.00 in 0 W/m2
00:52 48.2 °F 44.2 °F 30.17 in WNW 8.0 mph 12.0 mph 86 % 0.00 in 0 W/m2
00:58 48.2 °F 44.2 °F 30.17 in WNW 8.0 mph 13.0 mph 86 % 0.00 in 0 W/m2
01:03 48.0 °F 44.0 °F 30.17 in WNW 8.0 mph 13.0 mph 86 % 0.00 in 0 W/m2
01:08 48.0 °F 44.0 °F 30.18 in WNW 8.0 mph 13.0 mph 86 % 0.00 in 0 W/m2
01:13 48.0 °F 44.0 °F 30.18 in WNW 7.0 mph 13.0 mph 86 % 0.00 in 0 W/m2
01:18 47.8 °F 43.9 °F 30.18 in West 7.0 mph 13.0 mph 86 % 0.00 in 0 W/m2
01:23 47.8 °F 43.9 °F 30.19 in WNW 7.0 mph 13.0 mph 86 % 0.00 in 0 W/m2
01:28 47.8 °F 43.9 °F 30.18 in WNW 8.0 mph 13.0 mph 86 % 0.00 in 0 W/m2
01:33 47.7 °F 43.7 °F 30.18 in WNW 7.0 mph 12.0 mph 86 % 0.00 in 0 W/m2
01:38 47.7 °F 43.7 °F 30.19 in WNW 6.0 mph 10.0 mph 86 % 0.00 in 0 W/m2
01:43 47.5 °F 43.5 °F 30.19 in WNW 6.0 mph 10.0 mph 86 % 0.00 in 0 W/m2
01:48 47.3 °F 43.3 °F 30.19 in WNW 6.0 mph 12.0 mph 86 % 0.00 in 0 W/m2
01:53 47.3 °F 43.3 °F 30.19 in WNW 6.0 mph 12.0 mph 86 % 0.00 in 0 W/m2
01:58 47.1 °F 43.1 °F 30.19 in WNW 6.0 mph 11.0 mph 86 % 0.00 in 0 W/m2
02:03 47.1 °F 43.1 °F 30.20 in WNW 6.0 mph 11.0 mph 86 % 0.00 in 0 W/m2
02:08 47.1 °F 43.4 °F 30.20 in NW 6.0 mph 12.0 mph 87 % 0.00 in 0 W/m2
02:13 47.1 °F 43.4 °F 30.20 in NW 6.0 mph 12.0 mph 87 % 0.00 in 0 W/m2
02:18 47.1 °F 43.4 °F 30.20 in NW 6.0 mph 11.0 mph 87 % 0.00 in 0 W/m2
02:23 46.9 °F 43.3 °F 30.20 in NW 7.0 mph 11.0 mph 87 % 0.00 in 0 W/m2
02:28 46.9 °F 43.3 °F 30.20 in WNW 8.0 mph 13.0 mph 87 % 0.00 in 0 W/m2
02:33 46.9 °F 43.3 °F 30.20 in WNW 8.0 mph 13.0 mph 87 % 0.00 in 0 W/m2
02:38 46.9 °F 43.3 °F 30.20 in WNW 7.0 mph 12.0 mph 87 % 0.00 in 0 W/m2
02:43 46.8 °F 43.1 °F 30.20 in WNW 7.0 mph 11.0 mph 87 % 0.00 in 0 W/m2
02:48 46.8 °F 43.1 °F 30.20 in WNW 7.0 mph 11.0 mph 87 % 0.00 in 0 W/m2
02:53 46.8 °F 43.1 °F 30.20 in WNW 7.0 mph 12.0 mph 87 % 0.00 in 0 W/m2
02:58 46.6 °F 43.2 °F 30.20 in WNW 7.0 mph 12.0 mph 88 % 0.00 in 0 W/m2
03:03 46.6 °F 43.2 °F 30.20 in WNW 7.0 mph 12.0 mph 88 % 0.00 in 0 W/m2
03:08 46.6 °F 42.9 °F 30.20 in WNW 6.0 mph 12.0 mph 87 % 0.00 in 0 W/m2
03:18 46.2 °F 42.9 °F 30.21 in WNW 6.0 mph 10.0 mph 88 % 0.00 in 0 W/m2
03:23 46.2 °F 42.9 °F 30.21 in WNW 5.0 mph 10.0 mph 88 % 0.00 in 0 W/m2
03:28 46.2 °F 42.9 °F 30.21 in WNW 6.0 mph 10.0 mph 88 % 0.00 in 0 W/m2
03:33 46.0 °F 42.7 °F 30.21 in NW 6.0 mph 10.0 mph 88 % 0.00 in 0 W/m2
03:38 46.0 °F 42.7 °F 30.21 in WNW 6.0 mph 10.0 mph 88 % 0.00 in 0 W/m2
03:43 46.0 °F 42.7 °F 30.21 in WNW 6.0 mph 9.0 mph 88 % 0.00 in 0 W/m2
03:48 45.9 °F 42.5 °F 30.21 in WNW 5.0 mph 9.0 mph 88 % 0.00 in 0 W/m2
03:53 45.7 °F 42.3 °F 30.21 in WNW 4.0 mph 7.0 mph 88 % 0.00 in 0 W/m2
03:54 45.7 °F 42.3 °F 30.21 in WNW 4.0 mph 7.0 mph 88 % 0.00 in 0 W/m2
03:59 45.5 °F 42.2 °F 30.21 in NW 3.0 mph 6.0 mph 88 % 0.00 in 0 W/m2
04:04 45.3 °F 42.0 °F 30.21 in NW 3.0 mph 7.0 mph 88 % 0.00 in 0 W/m2
04:09 45.1 °F 41.8 °F 30.21 in NW 2.0 mph 7.0 mph 88 % 0.00 in 0 W/m2
04:15 45.0 °F 41.6 °F 30.21 in NNW 2.0 mph 6.0 mph 88 % 0.00 in 0 W/m2
04:20 45.0 °F 41.6 °F 30.22 in NW 3.0 mph 7.0 mph 88 % 0.00 in 0 W/m2
04:23 45.0 °F 41.9 °F 30.22 in NW 3.0 mph 7.0 mph 89 % 0.00 in 0 W/m2
04:24 45.0 °F 41.9 °F 30.22 in NW 3.0 mph 7.0 mph 89 % 0.00 in 0 W/m2
04:28 44.8 °F 41.7 °F 30.22 in NW 4.0 mph 7.0 mph 89 % 0.00 in 0 W/m2
04:38 44.8 °F 41.7 °F 30.22 in WNW 5.0 mph 9.0 mph 89 % 0.00 in 0 W/m2
04:43 45.0 °F 41.9 °F 30.22 in WNW 5.0 mph 9.0 mph 89 % 0.00 in 0 W/m2
04:48 45.0 °F 41.9 °F 30.22 in WNW 5.0 mph 9.0 mph 89 % 0.00 in 0 W/m2
04:49 44.8 °F 41.7 °F 30.22 in WNW 5.0 mph 9.0 mph 89 % 0.00 in 0 W/m2
04:54 44.8 °F 41.7 °F 30.22 in WNW 5.0 mph 9.0 mph 89 % 0.00 in 0 W/m2
04:59 44.8 °F 41.7 °F 30.22 in WNW 5.0 mph 9.0 mph 89 % 0.00 in 0 W/m2
05:09 44.4 °F 41.4 °F 30.22 in WNW 4.0 mph 7.0 mph 89 % 0.00 in 0 W/m2
05:14 44.2 °F 41.2 °F 30.23 in WNW 4.0 mph 6.0 mph 89 % 0.00 in 0 W/m2
05:19 44.1 °F 41.0 °F 30.23 in WNW 4.0 mph 6.0 mph 89 % 0.00 in 0 W/m2
05:24 44.1 °F 41.0 °F 30.23 in WNW 4.0 mph 7.0 mph 89 % 0.00 in 0 W/m2
05:30 43.9 °F 41.1 °F 30.23 in WNW 3.0 mph 7.0 mph 90 % 0.00 in 0 W/m2
05:35 43.9 °F 41.1 °F 30.23 in WNW 2.0 mph 5.0 mph 90 % 0.00 in 0 W/m2
05:40 43.7 °F 41.0 °F 30.23 in NW 3.0 mph 6.0 mph 90 % 0.00 in 0 W/m2
05:45 43.5 °F 40.8 °F 30.23 in NW 3.0 mph 6.0 mph 90 % 0.00 in 0 W/m2
05:50 43.5 °F 40.8 °F 30.23 in WNW 4.0 mph 8.0 mph 90 % 0.00 in 0 W/m2
05:55 43.5 °F 40.8 °F 30.23 in WNW 5.0 mph 10.0 mph 90 % 0.00 in 0 W/m2
06:00 43.7 °F 41.2 °F 30.23 in WNW 5.0 mph 10.0 mph 91 % 0.00 in 0 W/m2
06:05 43.9 °F 41.1 °F 30.24 in WNW 5.0 mph 8.0 mph 90 % 0.00 in 0 W/m2
06:10 43.7 °F 41.0 °F 30.24 in WNW 4.0 mph 7.0 mph 90 % 0.00 in 0 W/m2
06:25 43.5 °F 40.8 °F 30.24 in WNW 5.0 mph 9.0 mph 90 % 0.00 in 0 W/m2
06:30 43.5 °F 40.8 °F 30.24 in WNW 5.0 mph 8.0 mph 90 % 0.00 in 0 W/m2
06:35 43.5 °F 40.8 °F 30.24 in WNW 5.0 mph 8.0 mph 90 % 0.00 in 0 W/m2
06:40 43.5 °F 41.1 °F 30.24 in NW 4.0 mph 8.0 mph 91 % 0.00 in 0 W/m2
06:45 43.5 °F 40.8 °F 30.24 in NW 4.0 mph 8.0 mph 90 % 0.00 in 0 W/m2
06:50 43.5 °F 41.1 °F 30.24 in NW 5.0 mph 8.0 mph 91 % 0.00 in 0 W/m2
06:55 43.5 °F 41.1 °F 30.25 in WNW 5.0 mph 8.0 mph 91 % 0.00 in 0 W/m2
07:00 43.5 °F 40.8 °F 30.25 in WNW 5.0 mph 9.0 mph 90 % 0.00 in 0 W/m2
07:05 43.5 °F 40.8 °F 30.25 in WNW 5.0 mph 9.0 mph 90 % 0.00 in 0 W/m2
07:10 43.3 °F 40.6 °F 30.25 in WNW 4.0 mph 7.0 mph 90 % 0.00 in 0 W/m2
07:15 43.3 °F 40.6 °F 30.25 in WNW 4.0 mph 7.0 mph 90 % 0.00 in 5 W/m2
07:16 43.3 °F 40.6 °F 30.25 in WNW 4.0 mph 7.0 mph 90 % 0.00 in 5 W/m2
07:21 43.2 °F 40.4 °F 30.25 in WNW 5.0 mph 7.0 mph 90 % 0.00 in 7 W/m2
07:26 43.2 °F 40.4 °F 30.26 in WNW 5.0 mph 7.0 mph 90 % 0.00 in 9 W/m2
07:31 43.2 °F 40.4 °F 30.26 in WNW 5.0 mph 8.0 mph 90 % 0.00 in 11 W/m2
07:36 43.2 °F 40.7 °F 30.26 in WNW 5.0 mph 8.0 mph 91 % 0.00 in 12 W/m2
07:46 43.3 °F 40.9 °F 30.26 in WNW 5.0 mph 9.0 mph 91 % 0.00 in 23 W/m2
07:51 43.5 °F 41.1 °F 30.27 in WNW 5.0 mph 7.0 mph 91 % 0.00 in 65 W/m2
07:56 43.9 °F 41.4 °F 30.27 in WNW 5.0 mph 7.0 mph 91 % 0.00 in 79 W/m2
08:01 44.4 °F 42.0 °F 30.26 in NW 4.0 mph 7.0 mph 91 % 0.00 in 91 W/m2
08:06 44.8 °F 42.0 °F 30.27 in WNW 4.0 mph 7.0 mph 90 % 0.00 in 104 W/m2
08:11 45.3 °F 42.6 °F 30.27 in WNW 5.0 mph 7.0 mph 90 % 0.00 in 116 W/m2
08:16 45.9 °F 42.8 °F 30.27 in NW 5.0 mph 8.0 mph 89 % 0.00 in 127 W/m2
08:21 46.6 °F 43.2 °F 30.28 in NW 5.0 mph 8.0 mph 88 % 0.00 in 137 W/m2
08:26 46.9 °F 43.0 °F 30.28 in WNW 5.0 mph 8.0 mph 86 % 0.00 in 146 W/m2
08:31 47.5 °F 43.5 °F 30.28 in WNW 6.0 mph 9.0 mph 86 % 0.00 in 160 W/m2
08:36 47.8 °F 43.5 °F 30.28 in NW 6.0 mph 10.0 mph 85 % 0.00 in 171 W/m2
08:41 48.4 °F 43.8 °F 30.29 in NW 5.0 mph 10.0 mph 84 % 0.00 in 183 W/m2
08:46 48.6 °F 43.6 °F 30.29 in WNW 6.0 mph 10.0 mph 83 % 0.00 in 197 W/m2
08:51 48.7 °F 43.8 °F 30.29 in WNW 6.0 mph 9.0 mph 83 % 0.00 in 211 W/m2
08:56 49.1 °F 43.8 °F 30.29 in WNW 6.0 mph 9.0 mph 82 % 0.00 in 225 W/m2
09:01 49.5 °F 43.9 °F 30.30 in WNW 6.0 mph 11.0 mph 81 % 0.00 in 236 W/m2
09:06 49.8 °F 44.2 °F 30.30 in WNW 7.0 mph 11.0 mph 81 % 0.00 in 250 W/m2
09:11 50.2 °F 44.2 °F 30.30 in WNW 7.0 mph 11.0 mph 80 % 0.00 in 262 W/m2
09:16 50.5 °F 44.3 °F 30.30 in WNW 7.0 mph 12.0 mph 79 % 0.00 in 276 W/m2
09:21 50.7 °F 44.4 °F 30.30 in WNW 7.0 mph 12.0 mph 79 % 0.00 in 287 W/m2
09:26 51.3 °F 44.6 °F 30.30 in WNW 7.0 mph 12.0 mph 78 % 0.00 in 297 W/m2
09:31 51.4 °F 44.8 °F 30.30 in NW 6.0 mph 12.0 mph 78 % 0.00 in 258 W/m2
09:37 51.8 °F 44.8 °F 30.31 in NW 5.0 mph 12.0 mph 77 % 0.00 in 325 W/m2
09:42 52.0 °F 44.6 °F 30.31 in WNW 6.0 mph 14.0 mph 76 % 0.00 in 336 W/m2
09:47 52.0 °F 44.6 °F 30.31 in WNW 7.0 mph 14.0 mph 76 % 0.00 in 346 W/m2
09:52 52.2 °F 44.5 °F 30.31 in WNW 7.0 mph 12.0 mph 75 % 0.00 in 353 W/m2
09:57 52.5 °F 44.5 °F 30.31 in NW 6.0 mph 12.0 mph 74 % 0.00 in 360 W/m2
10:02 52.9 °F 44.1 °F 30.31 in NW 7.0 mph 12.0 mph 72 % 0.00 in 378 W/m2
10:12 53.6 °F 44.4 °F 30.31 in NW 6.0 mph 12.0 mph 71 % 0.00 in 403 W/m2
10:17 54.0 °F 44.4 °F 30.31 in NW 7.0 mph 12.0 mph 70 % 0.00 in 404 W/m2
10:22 54.1 °F 44.2 °F 30.32 in NW 7.0 mph 13.0 mph 69 % 0.00 in 408 W/m2
10:27 54.3 °F 44.4 °F 30.31 in NW 7.0 mph 13.0 mph 69 % 0.00 in 424 W/m2
10:32 54.5 °F 44.5 °F 30.31 in NW 7.0 mph 12.0 mph 69 % 0.00 in 427 W/m2
10:37 54.5 °F 44.2 °F 30.31 in NW 7.0 mph 12.0 mph 68 % 0.00 in 446 W/m2
10:42 54.7 °F 44.3 °F 30.32 in NW 7.0 mph 13.0 mph 68 % 0.00 in 466 W/m2
10:47 54.7 °F 43.5 °F 30.32 in WNW 7.0 mph 16.0 mph 66 % 0.00 in 483 W/m2
10:52 55.0 °F 43.9 °F 30.31 in WNW 8.0 mph 16.0 mph 66 % 0.00 in 429 W/m2
10:57 55.0 °F 43.5 °F 30.31 in NW 7.0 mph 13.0 mph 65 % 0.00 in 411 W/m2
11:02 55.2 °F 43.7 °F 30.31 in NW 6.0 mph 11.0 mph 65 % 0.00 in 464 W/m2
11:07 55.2 °F 43.7 °F 30.31 in NW 7.0 mph 11.0 mph 65 % 0.00 in 490 W/m2
11:12 55.4 °F 43.0 °F 30.31 in NW 7.0 mph 13.0 mph 63 % 0.00 in 508 W/m2
11:17 55.6 °F 43.6 °F 30.31 in NW 7.0 mph 13.0 mph 64 % 0.00 in 510 W/m2
11:22 55.8 °F 43.3 °F 30.31 in NW 8.0 mph 13.0 mph 63 % 0.00 in 517 W/m2
11:27 55.8 °F 43.3 °F 30.31 in NW 8.0 mph 13.0 mph 63 % 0.00 in 522 W/m2
11:32 55.8 °F 42.9 °F 30.31 in NW 7.0 mph 13.0 mph 62 % 0.00 in 531 W/m2
11:37 55.8 °F 43.3 °F 30.31 in NW 5.0 mph 12.0 mph 63 % 0.00 in 575 W/m2
11:42 56.1 °F 43.3 °F 30.31 in NW 5.0 mph 11.0 mph 62 % 0.00 in 555 W/m2
11:47 56.5 °F 43.2 °F 30.30 in WNW 6.0 mph 13.0 mph 61 % 0.00 in 527 W/m2
11:52 56.7 °F 43.8 °F 30.30 in NW 6.0 mph 13.0 mph 62 % 0.00 in 531 W/m2
11:57 56.8 °F 43.5 °F 30.30 in NW 5.0 mph 11.0 mph 61 % 0.00 in 580 W/m2
12:02 57.0 °F 43.3 °F 30.30 in NW 5.0 mph 10.0 mph 60 % 0.00 in 606 W/m2
12:07 57.2 °F 43.9 °F 30.30 in NNW 5.0 mph 10.0 mph 61 % 0.00 in 598 W/m2
12:12 57.0 °F 43.7 °F 30.30 in NNW 5.0 mph 11.0 mph 61 % 0.00 in 566 W/m2
12:17 57.4 °F 44.0 °F 30.30 in NW 6.0 mph 13.0 mph 61 % 0.00 in 580 W/m2
12:19 57.4 °F 44.0 °F 30.30 in NW 6.0 mph 13.0 mph 61 % 0.00 in 568 W/m2
12:24 57.4 °F 43.6 °F 30.30 in NW 7.0 mph 13.0 mph 60 % 0.00 in 165 W/m2
12:29 57.4 °F 44.0 °F 30.30 in NW 5.0 mph 12.0 mph 61 % 0.00 in 608 W/m2
12:34 57.7 °F 44.8 °F 30.29 in WNW 5.0 mph 10.0 mph 62 % 0.00 in 598 W/m2
12:39 57.7 °F 44.4 °F 30.30 in West 6.0 mph 13.0 mph 61 % 0.00 in 624 W/m2
12:44 57.9 °F 44.5 °F 30.30 in West 7.0 mph 13.0 mph 61 % 0.00 in 584 W/m2
12:49 57.9 °F 44.1 °F 30.30 in WNW 7.0 mph 14.0 mph 60 % 0.00 in 490 W/m2
12:54 57.9 °F 43.7 °F 30.30 in WNW 6.0 mph 14.0 mph 59 % 0.00 in 526 W/m2
12:59 57.9 °F 44.1 °F 30.29 in WNW 6.0 mph 11.0 mph 60 % 0.00 in 197 W/m2
13:04 57.6 °F 43.8 °F 30.30 in NW 6.0 mph 11.0 mph 60 % 0.00 in 473 W/m2
13:09 57.6 °F 44.6 °F 30.29 in NW 6.0 mph 10.0 mph 62 % 0.00 in 534 W/m2
13:14 58.1 °F 44.7 °F 30.29 in WNW 5.0 mph 10.0 mph 61 % 0.00 in 466 W/m2
13:24 58.3 °F 44.0 °F 30.28 in WNW 7.0 mph 12.0 mph 59 % 0.00 in 478 W/m2
13:29 58.3 °F 44.0 °F 30.28 in WNW 7.0 mph 12.0 mph 59 % 0.00 in 388 W/m2
13:34 58.1 °F 44.3 °F 30.28 in NW 7.0 mph 11.0 mph 60 % 0.00 in 362 W/m2
13:39 57.9 °F 44.1 °F 30.28 in NW 7.0 mph 11.0 mph 60 % 0.00 in 316 W/m2
13:44 57.9 °F 44.1 °F 30.28 in WNW 7.0 mph 12.0 mph 60 % 0.00 in 380 W/m2
13:49 57.9 °F 44.1 °F 30.28 in WNW 8.0 mph 12.0 mph 60 % 0.00 in 383 W/m2
13:54 58.1 °F 44.3 °F 30.28 in NW 6.0 mph 12.0 mph 60 % 0.00 in 415 W/m2
13:59 57.9 °F 44.5 °F 30.28 in NW 6.0 mph 12.0 mph 61 % 0.00 in 408 W/m2
14:04 58.1 °F 44.7 °F 30.28 in NW 7.0 mph 11.0 mph 61 % 0.00 in 441 W/m2
14:09 58.3 °F 44.9 °F 30.28 in WNW 7.0 mph 11.0 mph 61 % 0.00 in 417 W/m2
14:14 58.5 °F 44.6 °F 30.28 in WNW 7.0 mph 12.0 mph 60 % 0.00 in 415 W/m2
14:19 58.6 °F 44.8 °F 30.28 in WNW 6.0 mph 12.0 mph 60 % 0.00 in 373 W/m2
14:24 58.8 °F 44.5 °F 30.28 in WNW 6.0 mph 13.0 mph 59 % 0.00 in 301 W/m2
14:29 58.6 °F 44.3 °F 30.28 in WNW 8.0 mph 15.0 mph 59 % 0.00 in 320 W/m2
14:34 58.6 °F 44.3 °F 30.28 in WNW 8.0 mph 15.0 mph 59 % 0.00 in 341 W/m2
14:39 58.6 °F 44.3 °F 30.27 in WNW 7.0 mph 12.0 mph 59 % 0.00 in 315 W/m2
14:41 58.5 °F 43.7 °F 30.27 in West 7.0 mph 12.0 mph 58 % 0.00 in 304 W/m2
14:46 58.3 °F 44.0 °F 30.27 in West 8.0 mph 18.0 mph 59 % 0.00 in 299 W/m2
14:51 58.1 °F 43.4 °F 30.27 in West 10.0 mph 18.0 mph 58 % 0.00 in 229 W/m2
14:56 57.9 °F 43.7 °F 30.27 in WNW 9.0 mph 16.0 mph 59 % 0.00 in 251 W/m2
15:02 57.7 °F 43.5 °F 30.28 in WNW 9.0 mph 15.0 mph 59 % 0.00 in 246 W/m2
15:12 57.6 °F 43.8 °F 30.27 in West 7.0 mph 14.0 mph 60 % 0.00 in 192 W/m2
15:17 57.4 °F 44.0 °F 30.27 in WNW 8.0 mph 14.0 mph 61 % 0.00 in 172 W/m2
15:22 57.2 °F 43.9 °F 30.27 in WNW 9.0 mph 13.0 mph 61 % 0.00 in 160 W/m2
15:32 56.8 °F 44.8 °F 30.27 in WNW 8.0 mph 14.0 mph 64 % 0.00 in 169 W/m2
15:37 56.7 °F 44.2 °F 30.26 in WNW 8.0 mph 15.0 mph 63 % 0.00 in 167 W/m2
15:42 56.7 °F 44.2 °F 30.26 in WNW 8.0 mph 15.0 mph 63 % 0.00 in 171 W/m2
15:47 56.7 °F 44.6 °F 30.26 in WNW 7.0 mph 13.0 mph 64 % 0.00 in 167 W/m2
15:52 56.5 °F 44.4 °F 30.26 in WNW 7.0 mph 12.0 mph 64 % 0.00 in 162 W/m2
15:57 56.5 °F 44.9 °F 30.26 in WNW 7.0 mph 11.0 mph 65 % 0.00 in 158 W/m2
16:02 56.5 °F 44.9 °F 30.26 in WNW 7.0 mph 12.0 mph 65 % 0.00 in 142 W/m2
16:07 56.5 °F 44.9 °F 30.25 in WNW 7.0 mph 14.0 mph 65 % 0.00 in 135 W/m2
16:12 56.3 °F 44.7 °F 30.26 in WNW 8.0 mph 15.0 mph 65 % 0.00 in 130 W/m2
16:17 56.1 °F 44.5 °F 30.26 in WNW 8.0 mph 15.0 mph 65 % 0.00 in 114 W/m2
16:27 55.9 °F 44.7 °F 30.25 in WNW 6.0 mph 12.0 mph 66 % 0.00 in 102 W/m2
16:32 55.8 °F 45.0 °F 30.25 in WNW 6.0 mph 12.0 mph 67 % 0.00 in 107 W/m2
16:37 55.8 °F 44.6 °F 30.25 in WNW 5.0 mph 10.0 mph 66 % 0.00 in 102 W/m2
16:42 55.6 °F 44.8 °F 30.25 in West 6.0 mph 10.0 mph 67 % 0.00 in 93 W/m2
16:47 55.6 °F 45.2 °F 30.25 in West 5.0 mph 9.0 mph 68 % 0.00 in 86 W/m2
16:52 55.4 °F 45.0 °F 30.25 in West 6.0 mph 10.0 mph 68 % 0.00 in 76 W/m2
16:57 55.2 °F 45.2 °F 30.25 in West 5.0 mph 10.0 mph 69 % 0.00 in 65 W/m2
17:02 55.2 °F 45.2 °F 30.25 in West 5.0 mph 10.0 mph 69 % 0.00 in 60 W/m2
17:07 55.0 °F 45.1 °F 30.25 in West 6.0 mph 12.0 mph 69 % 0.00 in 56 W/m2
17:17 54.9 °F 45.3 °F 30.25 in West 7.0 mph 12.0 mph 70 % 0.00 in 39 W/m2
17:22 54.7 °F 45.5 °F 30.24 in West 7.0 mph 12.0 mph 71 % 0.00 in 33 W/m2
17:27 54.7 °F 45.8 °F 30.25 in West 5.0 mph 9.0 mph 72 % 0.00 in 30 W/m2
17:32 54.3 °F 45.5 °F 30.25 in West 5.0 mph 9.0 mph 72 % 0.00 in 26 W/m2
17:37 54.3 °F 45.8 °F 30.25 in West 5.0 mph 9.0 mph 73 % 0.00 in 23 W/m2
17:42 54.1 °F 45.7 °F 30.25 in West 5.0 mph 9.0 mph 73 % 0.00 in 21 W/m2
17:47 54.1 °F 46.0 °F 30.25 in WSW 4.0 mph 9.0 mph 74 % 0.00 in 19 W/m2
17:52 54.0 °F 45.9 °F 30.24 in WSW 3.0 mph 6.0 mph 74 % 0.00 in 19 W/m2
17:57 54.0 °F 45.9 °F 30.24 in West 4.0 mph 7.0 mph 74 % 0.00 in 16 W/m2
18:02 53.8 °F 45.7 °F 30.23 in West 4.0 mph 7.0 mph 74 % 0.00 in 12 W/m2
18:07 53.8 °F 46.0 °F 30.24 in WSW 4.0 mph 7.0 mph 75 % 0.00 in 11 W/m2
18:12 53.6 °F 45.9 °F 30.24 in WSW 4.0 mph 7.0 mph 75 % 0.00 in 11 W/m2
18:17 53.4 °F 45.7 °F 30.24 in WSW 5.0 mph 8.0 mph 75 % 0.00 in 7 W/m2
18:22 53.4 °F 45.7 °F 30.24 in WSW 4.0 mph 8.0 mph 75 % 0.00 in 7 W/m2
18:27 53.4 °F 46.0 °F 30.24 in West 3.0 mph 5.0 mph 76 % 0.00 in 11 W/m2
18:32 53.2 °F 45.9 °F 30.24 in West 3.0 mph 7.0 mph 76 % 0.00 in 7 W/m2
18:37 53.1 °F 45.7 °F 30.24 in West 3.0 mph 7.0 mph 76 % 0.00 in 0 W/m2
18:42 53.1 °F 46.0 °F 30.23 in West 3.0 mph 7.0 mph 77 % 0.00 in 0 W/m2
18:47 53.1 °F 46.0 °F 30.24 in WSW 3.0 mph 6.0 mph 77 % 0.00 in 0 W/m2
18:53 52.9 °F 45.9 °F 30.24 in SW 3.0 mph 6.0 mph 77 % 0.00 in 0 W/m2
18:58 52.9 °F 45.9 °F 30.24 in SW 3.0 mph 6.0 mph 77 % 0.00 in 0 W/m2
19:03 52.7 °F 45.7 °F 30.24 in SW 2.0 mph 4.0 mph 77 % 0.00 in 0 W/m2
19:08 52.7 °F 46.0 °F 30.23 in SW 1.0 mph 4.0 mph 78 % 0.00 in 0 W/m2
19:13 52.5 °F 45.9 °F 30.23 in Calm   5.0 mph 78 % 0.00 in 0 W/m2
19:18 52.3 °F 45.7 °F 30.23 in SW 1.0 mph 5.0 mph 78 % 0.00 in 0 W/m2
19:23 52.3 °F 45.7 °F 30.23 in SW 1.0 mph 5.0 mph 78 % 0.00 in 0 W/m2
19:28 52.2 °F 45.5 °F 30.23 in SW 1.0 mph 5.0 mph 78 % 0.00 in 0 W/m2
19:33 52.0 °F 45.3 °F 30.23 in Calm   1.0 mph 78 % 0.00 in 0 W/m2
19:38 51.6 °F 45.3 °F 30.23 in Calm     79 % 0.00 in 0 W/m2
19:43 51.4 °F 45.5 °F 30.22 in Calm   4.0 mph 80 % 0.00 in 0 W/m2
19:48 51.4 °F 45.8 °F 30.22 in SW 1.0 mph 4.0 mph 81 % 0.00 in 0 W/m2
19:53 51.3 °F 45.6 °F 30.22 in Calm   4.0 mph 81 % 0.00 in 0 W/m2
19:58 51.1 °F 45.5 °F 30.22 in Calm   3.0 mph 81 % 0.00 in 0 W/m2
20:03 50.9 °F 45.6 °F 30.22 in Calm     82 % 0.00 in 0 W/m2
20:08 50.7 °F 45.4 °F 30.22 in Calm     82 % 0.00 in 0 W/m2
20:13 50.5 °F 45.2 °F 30.22 in Calm     82 % 0.00 in 0 W/m2
20:18 50.4 °F 45.4 °F 30.22 in Calm   1.0 mph 83 % 0.00 in 0 W/m2
20:23 50.2 °F 45.5 °F 30.22 in Calm   4.0 mph 84 % 0.00 in 0 W/m2
20:28 50.2 °F 45.5 °F 30.22 in West 1.0 mph 5.0 mph 84 % 0.00 in 0 W/m2
20:33 50.4 °F 45.7 °F 30.22 in WSW 2.0 mph 6.0 mph 84 % 0.00 in 0 W/m2
20:43 50.7 °F 46.1 °F 30.21 in WSW 1.0 mph 5.0 mph 84 % 0.00 in 0 W/m2
20:48 50.9 °F 46.2 °F 30.21 in Calm   2.0 mph 84 % 0.00 in 0 W/m2
20:53 50.9 °F 46.2 °F 30.20 in Calm   3.0 mph 84 % 0.00 in 0 W/m2
20:58 50.9 °F 46.2 °F 30.20 in Calm   3.0 mph 84 % 0.00 in 0 W/m2
21:03 50.9 °F 46.2 °F 30.20 in WSW 2.0 mph 5.0 mph 84 % 0.00 in 0 W/m2
21:08 50.9 °F 46.2 °F 30.20 in WSW 3.0 mph 6.0 mph 84 % 0.00 in 0 W/m2
21:13 51.1 °F 46.4 °F 30.19 in SW 5.0 mph 10.0 mph 84 % 0.00 in 0 W/m2
21:18 51.1 °F 46.4 °F 30.19 in SW 5.0 mph 10.0 mph 84 % 0.00 in 0 W/m2
21:23 51.1 °F 46.4 °F 30.19 in SW 4.0 mph 7.0 mph 84 % 0.00 in 0 W/m2
21:26 51.1 °F 46.4 °F 30.19 in SW 4.0 mph 6.0 mph 84 % 0.00 in 0 W/m2
21:31 51.1 °F 46.4 °F 30.19 in WSW 4.0 mph 7.0 mph 84 % 0.00 in 0 W/m2
21:36 51.1 °F 46.4 °F 30.20 in WSW 3.0 mph 7.0 mph 84 % 0.00 in 0 W/m2
21:41 51.1 °F 46.4 °F 30.19 in WSW 2.0 mph 6.0 mph 84 % 0.00 in 0 W/m2
21:46 51.1 °F 46.4 °F 30.18 in SW 1.0 mph 5.0 mph 84 % 0.00 in 0 W/m2
21:51 51.3 °F 46.3 °F 30.18 in SW 1.0 mph 5.0 mph 83 % 0.00 in 0 W/m2
21:56 51.3 °F 46.3 °F 30.18 in SW 2.0 mph 5.0 mph 83 % 0.00 in 0 W/m2
22:01 51.3 °F 46.3 °F 30.18 in SW 1.0 mph 5.0 mph 83 % 0.00 in 0 W/m2
22:06 51.3 °F 46.3 °F 30.18 in Calm   5.0 mph 83 % 0.00 in 0 W/m2
22:11 51.1 °F 46.1 °F 30.18 in Calm   1.0 mph 83 % 0.00 in 0 W/m2
22:16 51.1 °F 46.1 °F 30.17 in Calm   5.0 mph 83 % 0.00 in 0 W/m2
22:21 50.9 °F 45.9 °F 30.17 in SW 1.0 mph 6.0 mph 83 % 0.00 in 0 W/m2
22:26 51.1 °F 45.8 °F 30.17 in SW 2.0 mph 6.0 mph 82 % 0.00 in 0 W/m2
22:31 51.1 °F 45.5 °F 30.16 in WSW 2.0 mph 6.0 mph 81 % 0.00 in 0 W/m2
22:36 51.1 °F 45.5 °F 30.16 in WSW 2.0 mph 6.0 mph 81 % 0.00 in 0 W/m2
22:41 51.3 °F 45.6 °F 30.16 in WSW 1.0 mph 4.0 mph 81 % 0.00 in 0 W/m2
22:46 51.3 °F 45.6 °F 30.16 in Calm   2.0 mph 81 % 0.00 in 0 W/m2
22:51 51.3 °F 45.6 °F 30.16 in Calm   1.0 mph 81 % 0.00 in 0 W/m2
22:56 51.1 °F 45.5 °F 30.16 in Calm   4.0 mph 81 % 0.00 in 0 W/m2
23:01 51.1 °F 45.5 °F 30.16 in WSW 1.0 mph 5.0 mph 81 % 0.00 in 0 W/m2
23:06 51.1 °F 45.5 °F 30.15 in WSW 2.0 mph 6.0 mph 81 % 0.00 in 0 W/m2
23:11 51.1 °F 45.5 °F 30.15 in WSW 3.0 mph 6.0 mph 81 % 0.00 in 0 W/m2
23:14 51.1 °F 45.5 °F 30.15 in WSW 4.0 mph 6.0 mph 81 % 0.00 in 0 W/m2
23:19 51.1 °F 45.5 °F 30.14 in West 5.0 mph 7.0 mph 81 % 0.00 in 0 W/m2
23:24 51.3 °F 45.3 °F 30.13 in WSW 4.0 mph 8.0 mph 80 % 0.00 in 0 W/m2
23:29 51.4 °F 45.5 °F 30.13 in WSW 3.0 mph 8.0 mph 80 % 0.00 in 0 W/m2
23:34 51.4 °F 45.5 °F 30.13 in SW 3.0 mph 6.0 mph 80 % 0.00 in 0 W/m2
23:39 51.6 °F 45.7 °F 30.13 in SSW 4.0 mph 9.0 mph 80 % 0.00 in 0 W/m2
23:44 51.8 °F 45.8 °F 30.13 in SSW 4.0 mph 9.0 mph 80 % 0.00 in 0 W/m2
23:49 52.0 °F 45.7 °F 30.12 in SSW 4.0 mph 7.0 mph 79 % 0.00 in 0 W/m2
23:54 52.0 °F 45.7 °F 30.12 in SSW 3.0 mph 7.0 mph 79 % 0.00 in 0 W/m2
23:59 52.2 °F 46.2 °F 30.12 in SW 3.0 mph 8.0 mph 80 % 0.00 in 0 W/m2
Delerius-Weather
Compliments of Weather Underground - 2.25 mb

Data updates at regular intervals.